Time;durP1;ratioP1;P1;durP2;ratioP2;P2;SDS_P1;SDS_P2;PMS_P1;PMS_P2;Temp;Humidity;BMP_temperature;BMP_pressure;BME280_temperature;BME280_humidity;BME280_pressure;Samples;Min_cycle;Max_cycle;Signal;HPM_P1;HPM_P2
2021/05/22 00:01:31;;;;;;;2.20;0.60;;;10.10;99.90;;;;;;4995443;28;20030;-72
2021/05/22 00:03:57;;;;;;;2.97;0.50;;;9.90;99.90;;;;;;4993708;28;20388;-71
2021/05/22 00:06:23;;;;;;;0.50;0.50;;;9.90;99.90;;;;;;4995047;28;20022;-71
2021/05/22 00:08:49;;;;;;;1.23;0.60;;;10.00;99.90;;;;;;4995537;28;20034;-70
2021/05/22 00:11:15;;;;;;;1.45;0.70;;;9.90;99.90;;;;;;4995536;28;20032;-71
2021/05/22 00:13:41;;;;;;;3.58;0.50;;;10.00;99.90;;;;;;4995145;28;20051;-71
2021/05/22 00:16:07;;;;;;;0.77;0.52;;;9.90;99.90;;;;;;4996428;28;20056;-71
2021/05/22 00:18:32;;;;;;;1.65;0.40;;;9.90;99.90;;;;;;4996293;28;20477;-71
2021/05/22 00:20:58;;;;;;;1.48;0.50;;;9.80;99.90;;;;;;4995157;28;20034;-70
2021/05/22 00:23:24;;;;;;;1.35;0.50;;;9.90;99.90;;;;;;4994704;28;20023;-70
2021/05/22 00:25:50;;;;;;;1.55;0.60;;;9.90;99.90;;;;;;4995062;28;20111;-71
2021/05/22 00:28:15;;;;;;;0.80;0.55;;;10.10;99.90;;;;;;4995181;28;20116;-71
2021/05/22 00:30:41;;;;;;;3.60;0.80;;;10.10;99.90;;;;;;4994811;28;20030;-71
2021/05/22 00:33:07;;;;;;;0.73;0.40;;;10.00;99.90;;;;;;4993150;28;20046;-70
2021/05/22 00:35:33;;;;;;;2.72;0.40;;;10.00;99.90;;;;;;4994730;28;20153;-71
2021/05/22 00:37:58;;;;;;;2.85;0.43;;;10.00;99.90;;;;;;4994990;28;20030;-71
2021/05/22 00:40:24;;;;;;;0.63;0.40;;;10.00;99.90;;;;;;4994892;28;20439;-71
2021/05/22 00:42:50;;;;;;;5.00;0.70;;;10.00;99.90;;;;;;4994304;28;20033;-70
2021/05/22 00:45:21;;;;;;;2.20;0.45;;;10.00;99.90;;;;;;4993020;28;20041;-70
2021/05/22 00:47:52;;;;;;;2.10;0.52;;;10.10;99.90;;;;;;4994894;28;20034;-71
2021/05/22 00:50:21;;;;;;;3.25;0.63;;;10.10;99.90;;;;;;4994690;28;20498;-70
2021/05/22 00:52:47;;;;;;;1.17;0.57;;;10.10;99.90;;;;;;4994167;28;20126;-71
2021/05/22 00:55:13;;;;;;;0.80;0.70;;;10.10;99.90;;;;;;4994646;28;20054;-71
2021/05/22 00:57:40;;;;;;;1.90;0.50;;;10.00;99.90;;;;;;4994515;28;20026;-71
2021/05/22 01:00:08;;;;;;;3.17;0.68;;;10.00;99.90;;;;;;4995569;28;20022;-71
2021/05/22 01:02:34;;;;;;;3.22;0.75;;;10.10;99.90;;;;;;4999096;28;20022;-72
2021/05/22 01:05:00;;;;;;;1.75;0.70;;;10.00;99.90;;;;;;4996280;28;20030;-71
2021/05/22 01:07:25;;;;;;;2.35;0.68;;;10.10;99.90;;;;;;4997159;28;20033;-71
2021/05/22 01:09:55;;;;;;;2.65;0.80;;;10.10;99.90;;;;;;4996621;28;20026;-71
2021/05/22 01:12:34;;;;;;;2.72;0.63;;;10.00;99.90;;;;;;4993492;28;20022;-71
2021/05/22 01:15:24;;;;;;;1.85;0.50;;;10.10;99.90;;;;;;4997268;28;20027;-71
2021/05/22 01:17:51;;;;;;;1.73;0.63;;;10.10;99.90;;;;;;4996936;28;20033;-72
2021/05/22 01:20:40;;;;;;;0.57;0.57;;;10.00;99.90;;;;;;5004289;28;20049;-71
2021/05/22 01:23:34;;;;;;;1.42;0.55;;;10.00;99.90;;;;;;5007219;28;20038;-72
2021/05/22 01:26:00;;;;;;;7.40;0.80;;;10.10;99.90;;;;;;5004505;28;20083;-70
2021/05/22 01:28:27;;;;;;;0.85;0.50;;;10.10;99.90;;;;;;5015622;28;20050;-71
2021/05/22 01:30:52;;;;;;;1.75;0.75;;;10.10;99.90;;;;;;5016996;28;20022;-71
2021/05/22 01:33:20;;;;;;;1.15;0.70;;;10.00;99.90;;;;;;5003754;28;20038;-70
2021/05/22 01:35:47;;;;;;;0.80;0.80;;;10.00;99.90;;;;;;4993696;28;20027;-71
2021/05/22 01:38:12;;;;;;;1.67;0.70;;;10.00;99.90;;;;;;4993870;28;20033;-70
2021/05/22 01:40:38;;;;;;;1.58;0.50;;;10.00;99.90;;;;;;4993931;28;20026;-71
2021/05/22 01:43:07;;;;;;;3.15;1.08;;;10.00;99.90;;;;;;4993027;28;20029;-71
2021/05/22 01:45:45;;;;;;;0.70;0.50;;;10.10;99.90;;;;;;4993555;28;20496;-70
2021/05/22 01:50:57;;;;;;;4.40;0.85;;;10.00;99.90;;;;;;5449314;23;20144;-71
2021/05/22 01:53:23;;;;;;;1.45;0.57;;;10.00;99.90;;;;;;4971337;28;20484;-71
2021/05/22 01:55:50;;;;;;;2.70;0.60;;;10.00;99.90;;;;;;4956655;28;20081;-72
2021/05/22 01:58:16;;;;;;;1.90;0.65;;;10.00;99.90;;;;;;4973947;28;20026;-71
2021/05/22 02:00:44;;;;;;;7.05;0.93;;;10.00;99.90;;;;;;4982138;28;20034;-70
2021/05/22 02:03:31;;;;;;;2.75;0.80;;;10.00;99.90;;;;;;4993140;28;20033;-71
2021/05/22 02:05:58;;;;;;;1.70;0.90;;;10.10;99.90;;;;;;4985728;23;20221;-73
2021/05/22 02:08:25;;;;;;;3.25;0.82;;;10.10;99.90;;;;;;4971168;28;20038;-73
2021/05/22 02:10:51;;;;;;;1.67;0.70;;;10.10;99.90;;;;;;4972393;28;20018;-73
2021/05/22 02:13:18;;;;;;;4.70;0.60;;;10.10;99.90;;;;;;4974167;28;20381;-73
2021/05/22 02:16:03;;;;;;;3.40;1.25;;;10.20;99.90;;;;;;4973641;28;20027;-72
2021/05/22 02:18:31;;;;;;;3.10;0.63;;;10.20;99.90;;;;;;4972361;28;20077;-73
2021/05/22 02:20:59;;;;;;;1.83;0.60;;;10.30;99.90;;;;;;4972729;28;20038;-74
2021/05/22 02:23:26;;;;;;;1.67;0.52;;;10.30;99.90;;;;;;4973382;28;20050;-73
2021/05/22 02:25:57;;;;;;;0.80;0.52;;;10.20;99.90;;;;;;4973642;28;20031;-74
2021/05/22 02:28:27;;;;;;;1.15;0.60;;;10.20;99.90;;;;;;4973544;28;20060;-73
2021/05/22 02:30:53;;;;;;;2.03;1.25;;;10.20;99.90;;;;;;4973151;28;20101;-73
2021/05/22 02:33:19;;;;;;;0.90;0.60;;;10.20;99.90;;;;;;4973745;28;20058;-72
2021/05/22 02:35:47;;;;;;;2.83;0.80;;;10.20;99.90;;;;;;4973492;28;20102;-72
2021/05/22 02:38:24;;;;;;;2.30;0.70;;;10.20;99.90;;;;;;4973371;28;20476;-73
2021/05/22 02:40:55;;;;;;;1.33;0.77;;;10.10;99.90;;;;;;4972070;28;20035;-74
2021/05/22 02:43:23;;;;;;;1.15;0.70;;;10.10;99.90;;;;;;4973281;28;20106;-73
2021/05/22 02:45:49;;;;;;;1.70;0.70;;;10.00;99.90;;;;;;4973550;28;20366;-73
2021/05/22 02:48:18;;;;;;;1.15;0.60;;;10.00;99.90;;;;;;4973297;28;20374;-73
2021/05/22 02:50:48;;;;;;;2.67;0.80;;;9.90;99.90;;;;;;4972748;28;20029;-73
2021/05/22 02:53:18;;;;;;;5.55;0.73;;;9.90;99.90;;;;;;4973004;28;20027;-73
2021/05/22 02:55:46;;;;;;;2.60;0.70;;;9.90;99.90;;;;;;4973257;28;20015;-74
2021/05/22 02:58:13;;;;;;;0.50;0.50;;;9.90;99.90;;;;;;4973236;28;20042;-73
2021/05/22 03:00:39;;;;;;;2.85;0.70;;;9.90;99.90;;;;;;4971614;28;20034;-74
2021/05/22 03:03:05;;;;;;;4.97;0.95;;;9.90;99.90;;;;;;4973163;28;20389;-73
2021/05/22 03:05:31;;;;;;;0.95;0.57;;;10.00;99.90;;;;;;4972271;28;20114;-71
2021/05/22 03:07:57;;;;;;;0.60;0.60;;;9.80;99.90;;;;;;4973084;28;20035;-72
2021/05/22 03:10:23;;;;;;;2.88;0.73;;;9.80;99.90;;;;;;4972774;28;20110;-71
2021/05/22 03:12:49;;;;;;;3.22;0.90;;;9.80;99.90;;;;;;4973233;28;20031;-72
2021/05/22 03:15:15;;;;;;;2.00;0.80;;;9.90;99.90;;;;;;4972903;28;20424;-71
2021/05/22 03:17:41;;;;;;;1.15;0.70;;;9.90;99.90;;;;;;4972969;28;20034;-71
2021/05/22 03:20:08;;;;;;;2.22;0.70;;;9.90;99.90;;;;;;4972315;28;20023;-71
2021/05/22 03:22:34;;;;;;;0.98;0.73;;;9.90;99.90;;;;;;4973104;28;20035;-73
2021/05/22 03:25:00;;;;;;;3.03;0.98;;;9.90;99.90;;;;;;4972684;28;20589;-73
2021/05/22 03:27:26;;;;;;;1.67;0.80;;;9.90;99.90;;;;;;4972535;28;20457;-71
2021/05/22 03:29:53;;;;;;;3.78;1.50;;;9.90;99.90;;;;;;4973750;28;20031;-71
2021/05/22 03:32:18;;;;;;;4.00;0.90;;;9.90;99.90;;;;;;4976928;28;20023;-71
2021/05/22 03:34:44;;;;;;;2.78;0.93;;;9.90;99.90;;;;;;4976607;28;20033;-71
2021/05/22 03:37:09;;;;;;;1.65;0.70;;;9.80;99.90;;;;;;4976661;28;20070;-71
2021/05/22 03:39:35;;;;;;;3.33;0.77;;;9.80;99.90;;;;;;4976319;28;20058;-71
2021/05/22 03:42:01;;;;;;;1.33;0.77;;;9.80;99.90;;;;;;4976912;28;20515;-72
2021/05/22 03:44:26;;;;;;;2.05;0.55;;;9.80;99.90;;;;;;4976769;28;20041;-71
2021/05/22 03:46:52;;;;;;;2.15;0.50;;;9.80;99.90;;;;;;4977759;28;20520;-71
2021/05/22 03:49:18;;;;;;;1.70;0.73;;;9.80;99.90;;;;;;4990965;28;20034;-72
2021/05/22 03:51:43;;;;;;;5.18;0.57;;;9.90;99.90;;;;;;4976168;28;20026;-72
2021/05/22 03:54:09;;;;;;;2.78;0.82;;;9.80;99.90;;;;;;4976366;28;20030;-70
2021/05/22 03:56:35;;;;;;;2.63;0.80;;;9.90;99.90;;;;;;4976357;28;20027;-71
2021/05/22 03:59:00;;;;;;;1.98;0.77;;;10.00;99.90;;;;;;4976158;28;20041;-72
2021/05/22 04:01:26;;;;;;;1.75;0.75;;;10.00;99.90;;;;;;4975663;28;20035;-71
2021/05/22 04:03:52;;;;;;;2.30;0.82;;;10.00;99.90;;;;;;4976103;28;20073;-71
2021/05/22 04:06:18;;;;;;;1.13;0.68;;;9.90;99.90;;;;;;4975918;28;20038;-71
2021/05/22 04:08:43;;;;;;;2.72;0.65;;;9.80;99.90;;;;;;4975345;28;20483;-70
2021/05/22 04:11:09;;;;;;;2.08;0.60;;;9.80;99.90;;;;;;4975443;28;20027;-72
2021/05/22 04:13:34;;;;;;;2.47;0.77;;;9.80;99.90;;;;;;4975973;28;20497;-73
2021/05/22 04:16:00;;;;;;;2.83;0.70;;;9.80;99.90;;;;;;4974344;28;20035;-71
2021/05/22 04:18:26;;;;;;;1.73;0.80;;;9.70;99.90;;;;;;4975704;28;20030;-71
2021/05/22 04:20:52;;;;;;;5.55;0.85;;;9.60;99.90;;;;;;4975394;28;20101;-72
2021/05/22 04:23:17;;;;;;;3.15;1.02;;;9.60;99.90;;;;;;4975879;28;20062;-70
2021/05/22 04:25:43;;;;;;;3.65;0.82;;;9.60;99.90;;;;;;4975745;28;20031;-71
2021/05/22 04:28:09;;;;;;;4.07;0.70;;;9.60;99.90;;;;;;4975083;28;20026;-70
2021/05/22 04:30:35;;;;;;;3.92;0.82;;;9.60;99.90;;;;;;4974594;28;20022;-70
2021/05/22 04:33:01;;;;;;;3.72;0.60;;;9.60;99.90;;;;;;4975604;28;20027;-70
2021/05/22 04:35:26;;;;;;;4.03;1.55;;;9.60;99.90;;;;;;4975287;28;20085;-70
2021/05/22 04:37:52;;;;;;;2.30;0.77;;;9.60;99.90;;;;;;4975636;28;20066;-71
2021/05/22 04:40:18;;;;;;;1.48;0.50;;;9.60;99.90;;;;;;4974546;28;20054;-71
2021/05/22 04:42:44;;;;;;;2.35;0.90;;;9.60;99.90;;;;;;4967291;28;20388;-71
2021/05/22 04:45:10;;;;;;;2.13;0.68;;;9.50;99.90;;;;;;4971819;28;20035;-71
2021/05/22 04:47:38;;;;;;;2.85;0.68;;;9.50;99.90;;;;;;4971107;28;20031;-72
2021/05/22 04:50:05;;;;;;;2.92;0.75;;;9.50;99.90;;;;;;4972974;28;20023;-71
2021/05/22 04:52:31;;;;;;;1.23;0.70;;;9.60;99.90;;;;;;4973923;28;20026;-72
2021/05/22 04:54:57;;;;;;;3.15;1.00;;;9.60;99.90;;;;;;4972536;28;20027;-70
2021/05/22 04:57:22;;;;;;;3.90;0.85;;;9.70;99.90;;;;;;4971919;28;20036;-73
2021/05/22 04:59:48;;;;;;;8.18;1.23;;;9.90;99.90;;;;;;4972869;28;20042;-71
2021/05/22 05:02:14;;;;;;;2.40;0.70;;;10.00;99.90;;;;;;4966043;28;20026;-70
2021/05/22 05:04:40;;;;;;;3.75;1.23;;;10.10;99.90;;;;;;4960438;28;20127;-71
2021/05/22 05:07:06;;;;;;;2.97;0.80;;;10.20;99.90;;;;;;4962142;28;20038;-71
2021/05/22 05:09:36;;;;;;;2.05;0.93;;;10.20;99.90;;;;;;4958402;28;20375;-71
2021/05/22 05:12:06;;;;;;;2.75;0.80;;;10.30;99.90;;;;;;4973462;28;20027;-71
2021/05/22 05:14:33;;;;;;;5.70;0.90;;;10.40;99.90;;;;;;4972931;28;20023;-69
2021/05/22 05:16:58;;;;;;;2.95;1.45;;;10.50;99.90;;;;;;4973465;28;20038;-70
2021/05/22 05:19:27;;;;;;;4.82;0.90;;;10.50;99.90;;;;;;4973191;28;20679;-73
2021/05/22 05:21:53;;;;;;;2.60;0.90;;;10.50;99.90;;;;;;4973699;28;20022;-71
2021/05/22 05:24:18;;;;;;;2.10;0.80;;;10.60;99.90;;;;;;4976404;28;20099;-71
2021/05/22 05:26:44;;;;;;;4.78;0.90;;;10.50;99.90;;;;;;4977257;28;20023;-71
2021/05/22 05:29:10;;;;;;;3.00;0.98;;;10.50;99.90;;;;;;4978023;28;20397;-70
2021/05/22 05:31:35;;;;;;;6.80;1.20;;;10.50;99.90;;;;;;4976248;28;20031;-69
2021/05/22 05:34:01;;;;;;;5.25;0.93;;;10.60;99.90;;;;;;4976217;28;20149;-71
2021/05/22 05:36:27;;;;;;;10.65;1.42;;;10.60;99.90;;;;;;4977289;28;20038;-70
2021/05/22 05:38:52;;;;;;;10.57;1.40;;;10.70;99.90;;;;;;4983365;28;20057;-72
2021/05/22 05:41:18;;;;;;;5.60;1.00;;;10.80;99.90;;;;;;4971096;28;20035;-72
2021/05/22 05:43:44;;;;;;;3.53;0.98;;;10.90;99.90;;;;;;4972993;28;20159;-73
2021/05/22 05:46:10;;;;;;;2.92;0.80;;;10.90;99.90;;;;;;4971141;28;20031;-73
2021/05/22 05:48:35;;;;;;;4.20;0.90;;;10.80;99.90;;;;;;4972523;28;20047;-72
2021/05/22 05:51:01;;;;;;;3.50;1.33;;;10.90;99.90;;;;;;4969930;28;20095;-73
2021/05/22 05:53:27;;;;;;;2.00;0.75;;;11.00;99.90;;;;;;4970978;28;20042;-71
2021/05/22 05:55:52;;;;;;;7.20;1.27;;;11.00;99.90;;;;;;4971084;28;20557;-72
2021/05/22 05:58:18;;;;;;;4.97;1.23;;;11.20;99.90;;;;;;4970822;28;20035;-74
2021/05/22 06:00:43;;;;;;;4.20;1.10;;;11.70;99.90;;;;;;4972929;28;20034;-71
2021/05/22 06:03:09;;;;;;;4.85;1.17;;;12.50;99.90;;;;;;4972014;28;20062;-69
2021/05/22 06:05:35;;;;;;;4.03;0.90;;;12.40;99.90;;;;;;4969858;28;20728;-69
2021/05/22 06:08:01;;;;;;;4.53;0.93;;;11.70;99.90;;;;;;4970020;28;20933;-69
2021/05/22 06:10:26;;;;;;;3.38;1.00;;;11.60;99.90;;;;;;4969990;28;20030;-69
2021/05/22 06:12:53;;;;;;;3.92;0.90;;;11.60;99.90;;;;;;4970728;28;20038;-69
2021/05/22 06:17:44;;;;;;;2.97;0.93;;;11.80;99.90;;;;;;4964537;28;20035;-70
2021/05/22 06:20:12;;;;;;;6.53;1.20;;;11.90;99.90;;;;;;4953910;28;20561;-71
2021/05/22 06:22:38;;;;;;;6.00;1.42;;;11.80;99.90;;;;;;4958353;28;20094;-72
2021/05/22 06:25:04;;;;;;;5.40;1.00;;;11.90;99.90;;;;;;4952684;28;20110;-72
2021/05/22 06:27:30;;;;;;;4.55;1.17;;;11.80;99.90;;;;;;4962220;28;20067;-71
2021/05/22 06:29:56;;;;;;;4.82;1.17;;;11.70;99.90;;;;;;4971160;28;20083;-71
2021/05/22 06:32:22;;;;;;;5.38;1.23;;;11.80;99.90;;;;;;4971581;28;20581;-72
2021/05/22 06:34:47;;;;;;;11.70;2.17;;;12.00;99.90;;;;;;4972204;28;20393;-70
2021/05/22 06:37:13;;;;;;;4.13;1.40;;;12.30;99.90;;;;;;4972448;28;20033;-72
2021/05/22 06:39:39;;;;;;;7.22;1.38;;;12.50;99.90;;;;;;4990865;28;20046;-70
2021/05/22 06:42:05;;;;;;;6.70;1.45;;;12.60;99.90;;;;;;4965732;28;20039;-70
2021/05/22 06:44:35;;;;;;;4.15;0.98;;;12.80;99.90;;;;;;4975996;28;20081;-70
2021/05/22 06:47:01;;;;;;;5.90;1.10;;;12.80;99.90;;;;;;4975771;28;20045;-70
2021/05/22 06:49:31;;;;;;;4.50;1.23;;;13.00;99.90;;;;;;4977068;28;20027;-70
2021/05/22 06:51:58;;;;;;;6.57;1.20;;;13.00;99.90;;;;;;4971290;28;20035;-70
2021/05/22 06:54:24;;;;;;;4.70;1.20;;;12.80;99.90;;;;;;4974569;28;20863;-70
2021/05/22 06:56:50;;;;;;;3.97;1.10;;;13.00;99.90;;;;;;4973521;28;20095;-70
2021/05/22 06:59:15;;;;;;;6.38;1.10;;;13.10;99.90;;;;;;4974525;28;20054;-69
2021/05/22 07:01:41;;;;;;;5.90;1.10;;;13.00;99.90;;;;;;4972483;28;20121;-70
2021/05/22 07:04:07;;;;;;;4.00;1.10;;;13.20;99.90;;;;;;4969527;28;20122;-69
2021/05/22 07:06:33;;;;;;;3.58;1.08;;;13.50;99.90;;;;;;4973409;28;20080;-70
2021/05/22 07:08:58;;;;;;;4.68;1.17;;;13.40;99.90;;;;;;4971981;28;20043;-70
2021/05/22 07:11:25;;;;;;;6.68;1.20;;;13.40;99.90;;;;;;4969692;28;20035;-71
2021/05/22 07:13:51;;;;;;;5.88;1.00;;;13.40;99.90;;;;;;4971587;28;20038;-72
2021/05/22 07:16:17;;;;;;;8.15;1.10;;;13.20;99.90;;;;;;4970619;28;20069;-72
2021/05/22 07:18:43;;;;;;;4.60;1.20;;;12.60;99.90;;;;;;4969994;28;20058;-70
2021/05/22 07:21:09;;;;;;;6.05;1.80;;;12.80;99.90;;;;;;4970481;28;20113;-72
2021/05/22 07:23:35;;;;;;;3.13;1.27;;;12.80;99.90;;;;;;4971514;28;20038;-70
2021/05/22 07:26:02;;;;;;;6.13;0.93;;;12.80;99.90;;;;;;4970289;28;20034;-73
2021/05/22 07:28:33;;;;;;;6.28;1.10;;;12.50;99.90;;;;;;4971091;28;20039;-72
2021/05/22 07:31:00;;;;;;;5.28;1.25;;;12.60;99.90;;;;;;4969589;28;20458;-71
2021/05/22 07:33:36;;;;;;;9.13;1.20;;;12.70;99.90;;;;;;4970041;28;20031;-71
2021/05/22 07:36:01;;;;;;;5.93;1.55;;;12.80;99.90;;;;;;4970475;28;20053;-72
2021/05/22 07:38:27;;;;;;;3.88;1.27;;;13.00;99.90;;;;;;4970875;28;20031;-71
2021/05/22 07:40:53;;;;;;;4.38;1.00;;;13.20;99.90;;;;;;4970590;28;20035;-71
2021/05/22 07:43:20;;;;;;;6.22;1.08;;;13.20;99.90;;;;;;4972388;28;20042;-71
2021/05/22 07:45:46;;;;;;;5.97;1.10;;;13.30;99.90;;;;;;4970392;28;20042;-73
2021/05/22 07:48:12;;;;;;;4.13;1.15;;;13.70;99.90;;;;;;4970572;28;20047;-71
2021/05/22 07:50:38;;;;;;;6.82;0.95;;;13.70;99.90;;;;;;4970508;28;20038;-72
2021/05/22 07:53:04;;;;;;;7.32;1.25;;;13.80;99.90;;;;;;4970188;28;20445;-72
2021/05/22 07:55:30;;;;;;;4.50;0.90;;;14.00;99.90;;;;;;4969461;28;20063;-70
2021/05/22 07:57:56;;;;;;;5.05;1.40;;;14.20;99.90;;;;;;4970869;28;20073;-72
2021/05/22 08:00:22;;;;;;;8.50;1.38;;;14.50;99.90;;;;;;4968340;28;20045;-71
2021/05/22 08:02:48;;;;;;;2.78;0.82;;;14.60;99.90;;;;;;4970745;28;20041;-70
2021/05/22 08:05:14;;;;;;;6.28;0.95;;;14.50;99.90;;;;;;4969291;28;20043;-72
2021/05/22 08:07:40;;;;;;;3.08;1.10;;;14.40;99.90;;;;;;4994428;23;20035;-71
2021/05/22 08:10:07;;;;;;;5.03;1.17;;;14.70;99.90;;;;;;5006223;28;20034;-71
2021/05/22 08:12:33;;;;;;;7.55;1.08;;;14.90;99.90;;;;;;5011082;28;20034;-70
2021/05/22 08:14:59;;;;;;;4.80;1.42;;;14.70;99.90;;;;;;5009775;28;20128;-72
2021/05/22 08:17:25;;;;;;;10.05;1.10;;;14.90;99.90;;;;;;5012392;28;20113;-71
2021/05/22 08:19:51;;;;;;;3.33;1.10;;;15.20;99.90;;;;;;4975276;28;20161;-71
2021/05/22 08:22:16;;;;;;;2.92;1.13;;;15.30;99.50;;;;;;4991740;28;20030;-72
2021/05/22 08:24:42;;;;;;;3.88;0.95;;;15.30;99.60;;;;;;4993664;28;20030;-73
2021/05/22 08:27:08;;;;;;;3.15;0.77;;;15.20;97.70;;;;;;4992388;28;20030;-72
2021/05/22 08:29:34;;;;;;;3.15;1.00;;;15.20;98.40;;;;;;4992214;28;20026;-75
2021/05/22 08:32:00;;;;;;;5.72;1.20;;;15.60;98.20;;;;;;4993656;28;20113;-73
2021/05/22 08:34:27;;;;;;;5.40;1.02;;;16.10;99.40;;;;;;4993277;28;20050;-71
2021/05/22 08:36:54;;;;;;;6.38;1.08;;;16.20;97.60;;;;;;4994595;28;20057;-71
2021/05/22 08:39:20;;;;;;;5.10;0.77;;;16.10;97.10;;;;;;4997227;28;20058;-73
2021/05/22 08:41:48;;;;;;;4.22;0.88;;;16.50;96.50;;;;;;4997421;28;20038;-74
2021/05/22 08:44:14;;;;;;;3.35;0.70;;;16.20;94.40;;;;;;4998077;28;20027;-74
2021/05/22 08:46:40;;;;;;;2.50;0.77;;;15.70;94.10;;;;;;4998467;28;20030;-74
2021/05/22 08:49:06;;;;;;;5.65;0.98;;;15.30;94.10;;;;;;4993981;28;20117;-72
2021/05/22 08:51:32;;;;;;;5.28;1.20;;;15.60;97.30;;;;;;4992945;28;20065;-71
2021/05/22 08:53:58;;;;;;;5.35;1.20;;;16.00;95.70;;;;;;5012313;28;20030;-75
2021/05/22 08:56:24;;;;;;;2.92;1.00;;;16.60;98.60;;;;;;5015077;28;20034;-74
2021/05/22 08:58:50;;;;;;;2.90;0.80;;;17.00;98.00;;;;;;4996426;28;20045;-74
2021/05/22 09:01:16;;;;;;;1.63;0.70;;;17.60;92.90;;;;;;4988707;28;20525;-76
2021/05/22 09:03:44;;;;;;;6.95;0.98;;;17.90;92.20;;;;;;4991730;28;20034;-76
2021/05/22 09:06:10;;;;;;;2.50;1.08;;;18.20;93.10;;;;;;4978649;28;20408;-74
2021/05/22 09:08:36;;;;;;;4.25;1.35;;;18.60;90.60;;;;;;4997410;28;20042;-78
2021/05/22 09:11:06;;;;;;;3.75;1.25;;;17.60;88.40;;;;;;4994636;28;20034;-76
2021/05/22 09:13:34;;;;;;;2.42;0.80;;;16.60;88.80;;;;;;4979813;28;20026;-78
2021/05/22 09:16:09;;;;;;;6.32;0.93;;;15.80;91.80;;;;;;4994366;28;20046;-80
2021/05/22 09:18:37;;;;;;;1.38;0.68;;;16.90;92.40;;;;;;4987228;28;20038;-80
2021/05/22 09:21:06;;;;;;;4.93;1.20;;;17.60;90.00;;;;;;4995322;28;20113;-79
2021/05/22 09:23:39;;;;;;;5.60;0.82;;;17.10;89.20;;;;;;4983889;28;20089;-80
2021/05/22 09:26:11;;;;;;;4.93;0.95;;;17.10;87.90;;;;;;4977208;28;20050;-82
2021/05/22 09:28:41;;;;;;;3.15;0.93;;;17.80;90.60;;;;;;4994775;28;20030;-82
2021/05/22 09:31:11;;;;;;;5.68;1.00;;;19.10;87.60;;;;;;4980798;28;20672;-80
2021/05/22 09:33:37;;;;;;;9.80;1.20;;;17.00;83.30;;;;;;4982925;28;20065;-80
2021/05/22 09:36:12;;;;;;;2.50;0.70;;;17.70;89.90;;;;;;5011099;28;20062;-80
2021/05/22 09:38:56;;;;;;;3.67;0.93;;;17.00;87.20;;;;;;5012457;28;20062;-78
2021/05/22 09:41:22;;;;;;;3.90;0.80;;;18.00;89.60;;;;;;5006678;28;20035;-78
2021/05/22 09:44:08;;;;;;;2.72;0.77;;;18.00;85.60;;;;;;5002039;28;20065;-77
2021/05/22 09:46:55;;;;;;;4.93;0.70;;;18.80;81.40;;;;;;4978656;28;20062;-79
2021/05/22 09:49:23;;;;;;;5.82;1.02;;;18.80;77.40;;;;;;4972368;28;20067;-79
2021/05/22 09:52:10;;;;;;;3.67;0.82;;;18.80;84.10;;;;;;4984823;28;20571;-79
2021/05/22 09:54:59;;;;;;;2.53;0.77;;;19.60;77.80;;;;;;4979893;28;20034;-71
2021/05/22 09:57:38;;;;;;;3.38;0.85;;;18.20;76.70;;;;;;4974630;28;20069;-73
2021/05/22 10:00:17;;;;;;;5.25;0.82;;;17.80;78.40;;;;;;4991270;28;20164;-76
2021/05/22 10:02:42;;;;;;;5.45;0.77;;;18.10;75.90;;;;;;4987313;28;20049;-79
2021/05/22 10:05:18;;;;;;;2.92;0.50;;;17.30;81.20;;;;;;4987802;28;20393;-75
2021/05/22 10:07:45;;;;;;;2.45;0.70;;;17.50;81.30;;;;;;4996275;28;20488;-75
2021/05/22 10:10:15;;;;;;;3.13;0.73;;;17.80;81.30;;;;;;4970971;28;20039;-72
2021/05/22 10:12:43;;;;;;;2.63;0.80;;;17.50;83.60;;;;;;4987818;28;20038;-72
2021/05/22 10:15:10;;;;;;;4.68;0.80;;;17.80;83.80;;;;;;4986857;28;20428;-72
2021/05/22 10:17:37;;;;;;;3.47;0.70;;;16.80;79.60;;;;;;4989294;28;20883;-73
2021/05/22 10:20:03;;;;;;;2.53;0.77;;;16.60;82.60;;;;;;4989904;28;20042;-72
2021/05/22 10:22:29;;;;;;;2.60;0.75;;;17.50;82.60;;;;;;4992424;28;20042;-73
2021/05/22 10:24:57;;;;;;;6.47;1.20;;;17.10;77.90;;;;;;4989456;28;20515;-73
2021/05/22 10:27:23;;;;;;;3.72;0.70;;;17.30;82.50;;;;;;4986943;28;20096;-74
2021/05/22 10:29:49;;;;;;;2.72;1.02;;;16.60;82.30;;;;;;4993946;28;20150;-74
2021/05/22 10:32:22;;;;;;;2.78;0.60;;;16.80;79.00;;;;;;4995439;28;20038;-74
2021/05/22 10:34:49;;;;;;;2.90;1.10;;;17.60;79.90;;;;;;4993618;28;20026;-74
2021/05/22 10:37:44;;;;;;;3.67;0.85;;;17.80;76.30;;;;;;4989182;28;20124;-73
2021/05/22 10:40:51;;;;;;;2.67;0.70;;;17.80;78.70;;;;;;4984662;28;20038;-74
2021/05/22 10:43:44;;;;;;;12.10;0.90;;;18.20;77.50;;;;;;4988308;28;20045;-76
2021/05/22 10:46:10;;;;;;;6.03;1.15;;;18.70;76.40;;;;;;4990453;28;20046;-74
2021/05/22 10:48:36;;;;;;;3.47;0.90;;;18.20;81.60;;;;;;4988845;28;20056;-73
2021/05/22 10:51:02;;;;;;;4.40;0.60;;;18.60;78.90;;;;;;4989231;28;20065;-76
2021/05/22 10:53:33;;;;;;;3.50;0.88;;;18.20;76.40;;;;;;4989821;28;20034;-71
2021/05/22 10:56:15;;;;;;;5.30;0.63;;;17.80;73.80;;;;;;4990905;28;20408;-78
2021/05/22 10:59:07;;;;;;;5.25;0.70;;;17.90;75.80;;;;;;4994270;28;20656;-78
2021/05/22 11:01:36;;;;;;;3.90;0.98;;;18.00;77.80;;;;;;5005039;28;20045;-78
2021/05/22 11:06:47;;;;;;;2.60;0.55;;;19.20;76.20;;;;;;5003887;28;20034;-77
2021/05/22 11:09:28;;;;;;;3.22;0.82;;;18.40;75.00;;;;;;4980544;28;20042;-78
2021/05/22 11:11:59;;;;;;;6.40;1.20;;;18.50;74.10;;;;;;4998527;28;20652;-76
2021/05/22 11:14:42;;;;;;;1.70;0.50;;;18.20;71.10;;;;;;4998728;28;20057;-77
2021/05/22 11:17:25;;;;;;;1.92;0.50;;;18.10;72.30;;;;;;4997444;28;20038;-77
2021/05/22 11:22:31;;;;;;;4.78;0.60;;;18.90;68.50;;;;;;4990531;28;20034;-76
2021/05/22 11:25:18;;;;;;;3.42;0.75;;;18.10;69.80;;;;;;4989760;28;20047;-77
2021/05/22 11:27:46;;;;;;;6.50;0.73;;;18.30;68.80;;;;;;4971993;28;20034;-77
2021/05/22 11:30:25;;;;;;;3.72;0.65;;;18.00;69.20;;;;;;4972353;28;20038;-77
2021/05/22 11:33:01;;;;;;;2.63;0.70;;;18.90;68.80;;;;;;4993000;28;20563;-78
2021/05/22 11:35:27;;;;;;;1.33;0.52;;;19.40;72.70;;;;;;4990955;28;20093;-78
2021/05/22 11:37:54;;;;;;;1.48;0.50;;;20.30;67.40;;;;;;4987720;28;20034;-78
2021/05/22 11:40:35;;;;;;;1.30;0.60;;;19.60;62.60;;;;;;4991137;28;20817;-78
2021/05/22 11:43:18;;;;;;;2.60;0.73;;;19.70;67.30;;;;;;4989999;28;20057;-79
2021/05/22 11:45:49;;;;;;;1.17;0.50;;;20.10;66.10;;;;;;4991118;28;20677;-78
2021/05/22 11:48:30;;;;;;;4.38;0.60;;;21.40;62.40;;;;;;5001999;28;20028;-75
2021/05/22 11:50:58;;;;;;;2.08;0.98;;;22.10;59.00;;;;;;5005532;28;20117;-76
2021/05/22 11:53:28;;;;;;;2.00;0.75;;;22.40;60.60;;;;;;4991937;28;20027;-75
2021/05/22 11:55:59;;;;;;;1.52;0.63;;;22.30;58.60;;;;;;4975624;28;20065;-76
2021/05/22 11:58:31;;;;;;;1.20;0.57;;;22.70;59.10;;;;;;4991217;28;20081;-75
2021/05/22 12:01:27;;;;;;;3.10;0.50;;;22.10;59.40;;;;;;4974009;28;20040;-76
2021/05/22 12:03:55;;;;;;;1.88;0.60;;;21.10;59.60;;;;;;4974754;28;20127;-72
2021/05/22 12:06:32;;;;;;;2.33;0.55;;;20.50;61.90;;;;;;4995288;28;20031;-72
2021/05/22 12:09:00;;;;;;;4.03;0.98;;;21.10;61.80;;;;;;4990466;28;20464;-71
2021/05/22 12:11:29;;;;;;;3.05;0.90;;;20.80;57.70;;;;;;4989821;28;20094;-75
2021/05/22 12:14:03;;;;;;;2.17;0.65;;;20.90;58.90;;;;;;4991601;28;20101;-73
2021/05/22 12:16:29;;;;;;;1.92;0.70;;;19.80;60.00;;;;;;4992483;28;20110;-73
2021/05/22 12:18:56;;;;;;;1.77;0.90;;;20.70;62.70;;;;;;4993027;28;20031;-70
2021/05/22 12:21:22;;;;;;;1.33;0.50;;;22.00;61.00;;;;;;4990228;28;20038;-73
2021/05/22 12:23:49;;;;;;;4.75;0.60;;;22.00;55.70;;;;;;4990728;28;20114;-70
2021/05/22 12:26:15;;;;;;;3.33;0.65;;;22.20;56.10;;;;;;4989620;28;20069;-70
2021/05/22 12:28:41;;;;;;;1.77;0.40;;;20.60;59.40;;;;;;4990737;28;20104;-68
2021/05/22 12:31:07;;;;;;;2.45;0.50;;;21.50;55.90;;;;;;4972318;28;20046;-70
2021/05/22 12:33:32;;;;;;;6.07;0.60;;;20.90;57.10;;;;;;4990847;28;20026;-70
2021/05/22 12:36:09;;;;;;;1.98;0.63;;;21.50;56.90;;;;;;4990833;28;20035;-72
2021/05/22 12:38:37;;;;;;;4.45;0.60;;;21.70;58.90;;;;;;4990179;28;20388;-70
2021/05/22 12:41:04;;;;;;;3.05;0.40;;;21.70;58.00;;;;;;4989474;28;20412;-72
2021/05/22 12:43:42;;;;;;;3.47;0.50;;;22.60;56.70;;;;;;4990886;28;20039;-70
2021/05/22 12:46:23;;;;;;;5.45;1.80;;;22.10;55.30;;;;;;4989588;28;20127;-70
2021/05/22 12:48:49;;;;;;;3.25;0.75;;;21.40;58.40;;;;;;4972095;28;20558;-72
2021/05/22 12:51:22;;;;;;;7.22;0.80;;;21.90;60.20;;;;;;4988973;28;20042;-73
2021/05/22 12:53:48;;;;;;;2.63;0.50;;;21.80;58.10;;;;;;4990171;28;20026;-72
2021/05/22 12:56:17;;;;;;;1.63;0.47;;;20.70;57.90;;;;;;4989216;28;20513;-71
2021/05/22 12:58:44;;;;;;;3.30;0.60;;;21.30;60.50;;;;;;4991505;28;20045;-72
2021/05/22 13:01:20;;;;;;;2.75;0.70;;;23.10;58.60;;;;;;4971458;28;20070;-71
2021/05/22 13:03:51;;;;;;;1.83;0.70;;;24.20;56.30;;;;;;4990181;28;20026;-72
2021/05/22 13:06:26;;;;;;;1.58;0.60;;;23.90;54.00;;;;;;4990474;28;20039;-77